MSC Michaela — HOEZ — position and weather

sailwx.info

Track history (hours):
 
Tides and Currents Weather Stations Pressure Air Temp Water Temp Dewpoint Dewpoint Depression Visibility Wind Speed Wind Dir Waves Ship Positions

MSC Michaela

Last reported at 2017-Oct-15 10:46 UTC. Time now 2017-Oct-17 17:06 UTC.
Position S 24°24' W 046°02'.

Length 304 m; draft 12.8 m.

Type: Ship (hazmat cat A). MMSI: 353666000.

Date/timePositionNaut miles runAvg speedWind from/ knotsBaromVisibWave heightAir tempDewpointWater temp
2017-Oct-15 10:46S 24°24' W 046°02'415.2
2017-Oct-15 10:31S 24°25' W 046°06'714.5
2017-Oct-15 10:01S 24°22' W 046°14'815.5
2017-Oct-15 09:30S 24°17' W 046°20'713.7
2017-Oct-15 09:00S 24°11' W 046°23'713.9
2017-Oct-15 08:30S 24°04' W 046°22'5 9.6
2017-Oct-15 08:00S 23°60' W 046°19'2 4.0
2017-Oct-15 07:30S 23°58' W 046°18'0 0.0
2017-Oct-14 15:37S 23°58' W 046°18'0 3.9
2017-Oct-14 15:30S 23°58' W 046°17'4 7.1
2017-Oct-14 15:00S 24°01' W 046°20'4 8.0
2017-Oct-14 14:29S 24°05' W 046°22'3 6.9
2017-Oct-14 13:59S 24°07' W 046°24'2 3.5
2017-Oct-14 13:30S 24°08' W 046°26'2 3.4
2017-Oct-14 12:59S 24°10' W 046°26'0 0.5
2017-Oct-14 12:29S 24°10' W 046°26'0 0.6
2017-Oct-14 11:59S 24°11' W 046°26'0 0.3
2017-Oct-14 11:29S 24°11' W 046°26'0 0.2
2017-Oct-14 10:59S 24°11' W 046°26'0 0.4
2017-Oct-14 10:30S 24°10' W 046°26'1 1.3
2017-Oct-14 10:00S 24°10' W 046°26'2 4.4
2017-Oct-14 09:30S 24°12' W 046°25'4 8.9
2017-Oct-14 09:00S 24°16' W 046°26'1019.2
2017-Oct-14 08:31S 24°25' W 046°29'918.4
2017-Oct-14 08:00S 24°33' W 046°34'918.8
2017-Oct-14 07:31S 24°39' W 046°42'1018.8
2017-Oct-14 07:00S 24°45' W 046°50'1018.9
2017-Oct-14 06:28S 24°52' W 046°59'  
2017-Oct-10 14:34S 25°57' W 047°58'814.0
2017-Oct-10 14:00S 25°51' W 047°52'713.9
2017-Oct-10 13:30S 25°46' W 047°47'814.2
2017-Oct-10 12:55S 25°40' W 047°41'614.9
2017-Oct-10 12:29S 25°35' W 047°36'1419.3
2017-Oct-10 11:44S 25°25' W 047°25'520.8
2017-Oct-10 11:29S 25°21' W 047°22'1020.8
2017-Oct-10 10:59S 25°13' W 047°14'2420.8
2017-Oct-10 09:51S 24°55' W 046°56'720.8
2017-Oct-10 09:30S 24°50' W 046°51'1020.8
2017-Oct-10 09:00S 24°43' W 046°43'1120.8
2017-Oct-10 08:29S 24°34' W 046°36'1020.8
2017-Oct-10 08:00S 24°25' W 046°32'1020.9
2017-Oct-10 07:30S 24°15' W 046°27'1020.0
2017-Oct-10 07:00S 24°06' W 046°23'713.1
2017-Oct-10 06:30S 23°60' W 046°20'3 4.7
2017-Oct-10 05:51S 23°57' W 046°18'3 0.1
2017-Oct-09 01:37S 23°55' W 046°21'0 1.1
2017-Oct-09 01:29S 23°55' W 046°21'4 6.7
2017-Oct-09 00:55S 23°58' W 046°18'3 5.9
2017-Oct-09 00:30S 23°60' W 046°20'510.0
2017-Oct-09 00:00S 24°04' W 046°22'612.1
2017-Oct-08 23:30S 24°10' W 046°22'713.3
2017-Oct-08 23:00S 24°17' W 046°21'4 8.5
2017-Oct-08 22:30S 24°21' W 046°21'0 0.6
2017-Oct-08 22:00S 24°21' W 046°21'0 0.6
2017-Oct-08 21:29S 24°21' W 046°20'0 0.7
2017-Oct-08 20:59S 24°21' W 046°20'0 0.8
2017-Oct-08 20:30S 24°22' W 046°20'0 0.9
2017-Oct-08 20:00S 24°22' W 046°19'0 1.0
2017-Oct-08 19:30S 24°22' W 046°19'1 1.2
2017-Oct-08 19:00S 24°22' W 046°18'4 7.6
2017-Oct-08 18:29S 24°25' W 046°15'610.8
2017-Oct-08 17:58S 24°26' W 046°09'511.6
2017-Oct-08 17:30S 24°25' W 046°03'811.4
2017-Oct-08 16:49S 24°24' W 045°54'411.2
2017-Oct-08 16:26S 24°24' W 045°50'  
Track history (hours):
 
Tides and Currents Weather Stations Pressure Air Temp Water Temp Dewpoint Dewpoint Depression Visibility Wind Speed Wind Dir Waves Ship Positions

MSC Michaela

Last reported at 2017-Oct-15 10:46 UTC. Time now 2017-Oct-17 17:06 UTC.
Position S 24°24' W 046°02'.

Length 304 m; draft 12.8 m.

Type: Ship (hazmat cat A). MMSI: 353666000.

Date/timePositionNaut miles runAvg speedWind from/ knotsBaromVisibWave heightAir tempDewpointWater temp
2017-Oct-15 10:46S 24°24' W 046°02'415.2
2017-Oct-15 10:31S 24°25' W 046°06'714.5
2017-Oct-15 10:01S 24°22' W 046°14'815.5
2017-Oct-15 09:30S 24°17' W 046°20'713.7
2017-Oct-15 09:00S 24°11' W 046°23'713.9
2017-Oct-15 08:30S 24°04' W 046°22'5 9.6
2017-Oct-15 08:00S 23°60' W 046°19'2 4.0
2017-Oct-15 07:30S 23°58' W 046°18'0 0.0
2017-Oct-14 15:37S 23°58' W 046°18'0 3.9
2017-Oct-14 15:30S 23°58' W 046°17'4 7.1
2017-Oct-14 15:00S 24°01' W 046°20'4 8.0
2017-Oct-14 14:29S 24°05' W 046°22'3 6.9
2017-Oct-14 13:59S 24°07' W 046°24'2 3.5
2017-Oct-14 13:30S 24°08' W 046°26'2 3.4
2017-Oct-14 12:59S 24°10' W 046°26'0 0.5
2017-Oct-14 12:29S 24°10' W 046°26'0 0.6
2017-Oct-14 11:59S 24°11' W 046°26'0 0.3
2017-Oct-14 11:29S 24°11' W 046°26'0 0.2
2017-Oct-14 10:59S 24°11' W 046°26'0 0.4
2017-Oct-14 10:30S 24°10' W 046°26'1 1.3
2017-Oct-14 10:00S 24°10' W 046°26'2 4.4
2017-Oct-14 09:30S 24°12' W 046°25'4 8.9
2017-Oct-14 09:00S 24°16' W 046°26'1019.2
2017-Oct-14 08:31S 24°25' W 046°29'918.4
2017-Oct-14 08:00S 24°33' W 046°34'918.8
2017-Oct-14 07:31S 24°39' W 046°42'1018.8
2017-Oct-14 07:00S 24°45' W 046°50'1018.9
2017-Oct-14 06:28S 24°52' W 046°59'  
2017-Oct-10 14:34S 25°57' W 047°58'814.0
2017-Oct-10 14:00S 25°51' W 047°52'713.9
2017-Oct-10 13:30S 25°46' W 047°47'814.2
2017-Oct-10 12:55S 25°40' W 047°41'614.9
2017-Oct-10 12:29S 25°35' W 047°36'1419.3
2017-Oct-10 11:44S 25°25' W 047°25'520.8
2017-Oct-10 11:29S 25°21' W 047°22'1020.8
2017-Oct-10 10:59S 25°13' W 047°14'2420.8
2017-Oct-10 09:51S 24°55' W 046°56'720.8
2017-Oct-10 09:30S 24°50' W 046°51'1020.8
2017-Oct-10 09:00S 24°43' W 046°43'1120.8
2017-Oct-10 08:29S 24°34' W 046°36'1020.8
2017-Oct-10 08:00S 24°25' W 046°32'1020.9
2017-Oct-10 07:30S 24°15' W 046°27'1020.0
2017-Oct-10 07:00S 24°06' W 046°23'713.1
2017-Oct-10 06:30S 23°60' W 046°20'3 4.7
2017-Oct-10 05:51S 23°57' W 046°18'3 0.1
2017-Oct-09 01:37S 23°55' W 046°21'0 1.1
2017-Oct-09 01:29S 23°55' W 046°21'4 6.7
2017-Oct-09 00:55S 23°58' W 046°18'3 5.9
2017-Oct-09 00:30S 23°60' W 046°20'510.0
2017-Oct-09 00:00S 24°04' W 046°22'612.1
2017-Oct-08 23:30S 24°10' W 046°22'713.3
2017-Oct-08 23:00S 24°17' W 046°21'4 8.5
2017-Oct-08 22:30S 24°21' W 046°21'0 0.6
2017-Oct-08 22:00S 24°21' W 046°21'0 0.6
2017-Oct-08 21:29S 24°21' W 046°20'0 0.7
2017-Oct-08 20:59S 24°21' W 046°20'0 0.8
2017-Oct-08 20:30S 24°22' W 046°20'0 0.9
2017-Oct-08 20:00S 24°22' W 046°19'0 1.0
2017-Oct-08 19:30S 24°22' W 046°19'1 1.2
2017-Oct-08 19:00S 24°22' W 046°18'4 7.6
2017-Oct-08 18:29S 24°25' W 046°15'610.8
2017-Oct-08 17:58S 24°26' W 046°09'511.6
2017-Oct-08 17:30S 24°25' W 046°03'811.4
2017-Oct-08 16:49S 24°24' W 045°54'411.2
2017-Oct-08 16:26S 24°24' W 045°50'  

Dump ship's entire track history